sensor_id;sensor_type;location;lat;lon;timestamp;temperature;humidity
24402;DHT22;12539;48.808;11.292;2023-06-01T00:01:28;15.90;97.30
24402;DHT22;12539;48.808;11.292;2023-06-01T00:03:58;15.90;97.00
24402;DHT22;12539;48.808;11.292;2023-06-01T00:06:24;15.90;96.10
24402;DHT22;12539;48.808;11.292;2023-06-01T00:08:54;15.80;96.30
24402;DHT22;12539;48.808;11.292;2023-06-01T00:11:20;15.80;97.10
24402;DHT22;12539;48.808;11.292;2023-06-01T00:13:47;15.80;97.50
24402;DHT22;12539;48.808;11.292;2023-06-01T00:16:13;15.80;97.00
24402;DHT22;12539;48.808;11.292;2023-06-01T00:18:39;15.80;96.90
24402;DHT22;12539;48.808;11.292;2023-06-01T00:21:05;15.80;97.20
24402;DHT22;12539;48.808;11.292;2023-06-01T00:23:31;15.80;96.80
24402;DHT22;12539;48.808;11.292;2023-06-01T00:25:57;15.70;96.00
24402;DHT22;12539;48.808;11.292;2023-06-01T00:28:23;15.70;96.50
24402;DHT22;12539;48.808;11.292;2023-06-01T00:30:48;15.70;96.00
24402;DHT22;12539;48.808;11.292;2023-06-01T00:33:14;15.70;95.80
24402;DHT22;12539;48.808;11.292;2023-06-01T00:35:39;15.70;94.80
24402;DHT22;12539;48.808;11.292;2023-06-01T00:38:06;15.70;95.10
24402;DHT22;12539;48.808;11.292;2023-06-01T00:40:32;15.70;95.40
24402;DHT22;12539;48.808;11.292;2023-06-01T00:42:58;15.70;94.90
24402;DHT22;12539;48.808;11.292;2023-06-01T00:45:23;15.70;95.40
24402;DHT22;12539;48.808;11.292;2023-06-01T00:47:49;15.70;95.50
24402;DHT22;12539;48.808;11.292;2023-06-01T00:50:14;15.70;95.50
24402;DHT22;12539;48.808;11.292;2023-06-01T00:52:40;15.60;94.60
24402;DHT22;12539;48.808;11.292;2023-06-01T00:55:07;15.60;95.80
24402;DHT22;12539;48.808;11.292;2023-06-01T00:57:33;15.60;94.20
24402;DHT22;12539;48.808;11.292;2023-06-01T00:59:59;15.60;95.00
24402;DHT22;12539;48.808;11.292;2023-06-01T01:02:25;15.60;95.50
24402;DHT22;12539;48.808;11.292;2023-06-01T01:04:50;15.50;96.10
24402;DHT22;12539;48.808;11.292;2023-06-01T01:07:21;15.50;96.30
24402;DHT22;12539;48.808;11.292;2023-06-01T01:12:19;15.50;96.60
24402;DHT22;12539;48.808;11.292;2023-06-01T01:14:50;15.50;96.80
24402;DHT22;12539;48.808;11.292;2023-06-01T01:17:22;15.50;96.10
24402;DHT22;12539;48.808;11.292;2023-06-01T01:19:53;15.50;97.10
24402;DHT22;12539;48.808;11.292;2023-06-01T01:29:54;15.40;96.10
24402;DHT22;12539;48.808;11.292;2023-06-01T01:32:22;15.40;96.70
24402;DHT22;12539;48.808;11.292;2023-06-01T01:34:48;15.40;96.80
24402;DHT22;12539;48.808;11.292;2023-06-01T01:37:15;15.40;96.30
24402;DHT22;12539;48.808;11.292;2023-06-01T01:39:40;15.40;97.50
24402;DHT22;12539;48.808;11.292;2023-06-01T01:42:06;15.30;97.30
24402;DHT22;12539;48.808;11.292;2023-06-01T01:44:32;15.30;97.30
24402;DHT22;12539;48.808;11.292;2023-06-01T01:49:28;15.30;98.20
24402;DHT22;12539;48.808;11.292;2023-06-01T01:52:05;15.30;97.90
24402;DHT22;12539;48.808;11.292;2023-06-01T01:54:36;15.30;98.10
24402;DHT22;12539;48.808;11.292;2023-06-01T01:57:02;15.30;98.20
24402;DHT22;12539;48.808;11.292;2023-06-01T01:59:28;15.30;98.60
24402;DHT22;12539;48.808;11.292;2023-06-01T02:01:54;15.30;99.30
24402;DHT22;12539;48.808;11.292;2023-06-01T02:04:19;15.30;99.60
24402;DHT22;12539;48.808;11.292;2023-06-01T02:06:45;15.30;99.70
24402;DHT22;12539;48.808;11.292;2023-06-01T02:09:10;15.30;99.70
24402;DHT22;12539;48.808;11.292;2023-06-01T02:11:36;15.30;99.90
24402;DHT22;12539;48.808;11.292;2023-06-01T02:14:02;15.30;99.90
24402;DHT22;12539;48.808;11.292;2023-06-01T02:16:27;15.30;99.90
24402;DHT22;12539;48.808;11.292;2023-06-01T02:18:53;15.30;99.90
24402;DHT22;12539;48.808;11.292;2023-06-01T02:21:19;15.20;99.90
24402;DHT22;12539;48.808;11.292;2023-06-01T02:23:44;15.20;99.90
24402;DHT22;12539;48.808;11.292;2023-06-01T02:26:10;15.20;99.90
24402;DHT22;12539;48.808;11.292;2023-06-01T02:28:36;15.20;99.90
24402;DHT22;12539;48.808;11.292;2023-06-01T02:31:02;15.20;99.90
24402;DHT22;12539;48.808;11.292;2023-06-01T02:33:27;15.20;99.90
24402;DHT22;12539;48.808;11.292;2023-06-01T02:35:53;15.10;99.90
24402;DHT22;12539;48.808;11.292;2023-06-01T02:38:18;15.10;99.90
24402;DHT22;12539;48.808;11.292;2023-06-01T02:40:44;15.10;99.90
24402;DHT22;12539;48.808;11.292;2023-06-01T02:43:10;15.10;99.90
24402;DHT22;12539;48.808;11.292;2023-06-01T02:45:35;15.10;99.90
24402;DHT22;12539;48.808;11.292;2023-06-01T02:48:01;15.00;99.90
24402;DHT22;12539;48.808;11.292;2023-06-01T02:50:26;15.00;99.90
24402;DHT22;12539;48.808;11.292;2023-06-01T02:52:52;15.00;99.90
24402;DHT22;12539;48.808;11.292;2023-06-01T02:55:17;14.90;99.90
24402;DHT22;12539;48.808;11.292;2023-06-01T02:57:43;14.90;99.90
24402;DHT22;12539;48.808;11.292;2023-06-01T03:00:09;14.90;99.90
24402;DHT22;12539;48.808;11.292;2023-06-01T03:02:44;14.90;99.90
24402;DHT22;12539;48.808;11.292;2023-06-01T03:05:10;14.90;99.90
24402;DHT22;12539;48.808;11.292;2023-06-01T03:07:48;14.90;99.90
24402;DHT22;12539;48.808;11.292;2023-06-01T03:10:14;14.80;99.90
24402;DHT22;12539;48.808;11.292;2023-06-01T03:12:39;14.80;99.90
24402;DHT22;12539;48.808;11.292;2023-06-01T03:15:05;14.80;99.90
24402;DHT22;12539;48.808;11.292;2023-06-01T03:17:31;14.80;99.90
24402;DHT22;12539;48.808;11.292;2023-06-01T03:19:57;14.80;99.90
24402;DHT22;12539;48.808;11.292;2023-06-01T03:22:22;14.80;99.90
24402;DHT22;12539;48.808;11.292;2023-06-01T03:24:48;14.80;99.90
24402;DHT22;12539;48.808;11.292;2023-06-01T03:27:18;14.80;99.90
24402;DHT22;12539;48.808;11.292;2023-06-01T03:29:44;14.70;99.90
24402;DHT22;12539;48.808;11.292;2023-06-01T03:32:10;14.70;99.90
24402;DHT22;12539;48.808;11.292;2023-06-01T03:34:36;14.70;99.90
24402;DHT22;12539;48.808;11.292;2023-06-01T03:37:02;14.70;99.90
24402;DHT22;12539;48.808;11.292;2023-06-01T03:39:29;14.70;99.90
24402;DHT22;12539;48.808;11.292;2023-06-01T03:41:58;14.60;99.90
24402;DHT22;12539;48.808;11.292;2023-06-01T03:44:24;14.60;99.90
24402;DHT22;12539;48.808;11.292;2023-06-01T03:46:49;14.60;99.90
24402;DHT22;12539;48.808;11.292;2023-06-01T03:49:15;14.60;99.90
24402;DHT22;12539;48.808;11.292;2023-06-01T03:51:41;14.70;99.90
24402;DHT22;12539;48.808;11.292;2023-06-01T03:54:06;14.70;99.90
24402;DHT22;12539;48.808;11.292;2023-06-01T03:56:32;14.60;99.90
24402;DHT22;12539;48.808;11.292;2023-06-01T03:58:57;14.70;99.90
24402;DHT22;12539;48.808;11.292;2023-06-01T04:01:23;14.70;99.90
24402;DHT22;12539;48.808;11.292;2023-06-01T04:03:49;14.70;99.90
24402;DHT22;12539;48.808;11.292;2023-06-01T04:09:03;14.70;99.90
24402;DHT22;12539;48.808;11.292;2023-06-01T04:11:32;14.80;99.90
24402;DHT22;12539;48.808;11.292;2023-06-01T04:13:58;14.80;99.90
24402;DHT22;12539;48.808;11.292;2023-06-01T04:16:24;14.80;99.90
24402;DHT22;12539;48.808;11.292;2023-06-01T04:18:50;14.80;99.90
24402;DHT22;12539;48.808;11.292;2023-06-01T04:21:16;14.80;99.90
24402;DHT22;12539;48.808;11.292;2023-06-01T04:23:42;14.80;99.90
24402;DHT22;12539;48.808;11.292;2023-06-01T04:26:08;14.90;99.90
24402;DHT22;12539;48.808;11.292;2023-06-01T04:28:34;14.90;99.90
24402;DHT22;12539;48.808;11.292;2023-06-01T04:31:00;15.00;99.90
24402;DHT22;12539;48.808;11.292;2023-06-01T04:33:27;15.00;99.90
24402;DHT22;12539;48.808;11.292;2023-06-01T04:35:53;15.10;99.90
24402;DHT22;12539;48.808;11.292;2023-06-01T04:38:21;15.10;99.90
24402;DHT22;12539;48.808;11.292;2023-06-01T04:40:50;15.10;99.90
24402;DHT22;12539;48.808;11.292;2023-06-01T04:43:18;15.20;99.90
24402;DHT22;12539;48.808;11.292;2023-06-01T04:45:45;15.30;99.90
24402;DHT22;12539;48.808;11.292;2023-06-01T04:48:10;15.30;99.90
24402;DHT22;12539;48.808;11.292;2023-06-01T04:50:36;15.40;99.90
24402;DHT22;12539;48.808;11.292;2023-06-01T04:53:02;15.50;99.90
24402;DHT22;12539;48.808;11.292;2023-06-01T04:55:28;15.50;99.90
24402;DHT22;12539;48.808;11.292;2023-06-01T04:57:53;15.60;99.90
24402;DHT22;12539;48.808;11.292;2023-06-01T05:00:22;15.60;99.90
24402;DHT22;12539;48.808;11.292;2023-06-01T05:02:48;15.70;99.90
24402;DHT22;12539;48.808;11.292;2023-06-01T05:05:15;15.80;99.90
24402;DHT22;12539;48.808;11.292;2023-06-01T05:07:41;15.90;99.90
24402;DHT22;12539;48.808;11.292;2023-06-01T05:10:10;16.00;99.90
24402;DHT22;12539;48.808;11.292;2023-06-01T05:12:36;16.00;99.90
24402;DHT22;12539;48.808;11.292;2023-06-01T05:15:02;16.10;99.90
24402;DHT22;12539;48.808;11.292;2023-06-01T05:17:28;16.20;99.90
24402;DHT22;12539;48.808;11.292;2023-06-01T05:19:54;16.20;99.90
24402;DHT22;12539;48.808;11.292;2023-06-01T05:22:19;16.30;99.90
24402;DHT22;12539;48.808;11.292;2023-06-01T05:24:45;16.40;99.90
24402;DHT22;12539;48.808;11.292;2023-06-01T05:27:10;16.50;99.90
24402;DHT22;12539;48.808;11.292;2023-06-01T05:29:36;16.60;99.90
24402;DHT22;12539;48.808;11.292;2023-06-01T05:32:02;16.70;99.90
24402;DHT22;12539;48.808;11.292;2023-06-01T05:34:27;16.80;99.90
24402;DHT22;12539;48.808;11.292;2023-06-01T05:36:53;16.90;99.90
24402;DHT22;12539;48.808;11.292;2023-06-01T05:39:18;17.00;99.90
24402;DHT22;12539;48.808;11.292;2023-06-01T05:41:44;17.10;99.90
24402;DHT22;12539;48.808;11.292;2023-06-01T05:44:09;17.20;99.90
24402;DHT22;12539;48.808;11.292;2023-06-01T05:46:35;17.40;99.90
24402;DHT22;12539;48.808;11.292;2023-06-01T05:49:00;17.80;99.90
24402;DHT22;12539;48.808;11.292;2023-06-01T05:51:26;18.30;99.90
24402;DHT22;12539;48.808;11.292;2023-06-01T05:53:51;18.80;99.90
24402;DHT22;12539;48.808;11.292;2023-06-01T05:56:17;19.50;99.90
24402;DHT22;12539;48.808;11.292;2023-06-01T05:58:43;20.60;99.90
24402;DHT22;12539;48.808;11.292;2023-06-01T06:01:08;22.00;99.90
24402;DHT22;12539;48.808;11.292;2023-06-01T06:03:35;23.60;97.20
24402;DHT22;12539;48.808;11.292;2023-06-01T06:06:01;24.70;92.90
24402;DHT22;12539;48.808;11.292;2023-06-01T06:08:26;25.70;92.20
24402;DHT22;12539;48.808;11.292;2023-06-01T06:10:52;26.70;89.70
24402;DHT22;12539;48.808;11.292;2023-06-01T06:13:21;27.30;87.60
24402;DHT22;12539;48.808;11.292;2023-06-01T06:15:46;28.00;87.40
24402;DHT22;12539;48.808;11.292;2023-06-01T06:18:12;28.80;83.30
24402;DHT22;12539;48.808;11.292;2023-06-01T06:20:37;29.40;83.60
24402;DHT22;12539;48.808;11.292;2023-06-01T06:23:03;29.80;78.10
24402;DHT22;12539;48.808;11.292;2023-06-01T06:25:28;30.00;74.80
24402;DHT22;12539;48.808;11.292;2023-06-01T06:27:54;30.20;73.30
24402;DHT22;12539;48.808;11.292;2023-06-01T06:30:20;30.60;74.20
24402;DHT22;12539;48.808;11.292;2023-06-01T06:32:46;31.00;71.30
24402;DHT22;12539;48.808;11.292;2023-06-01T06:35:11;31.50;68.50
24402;DHT22;12539;48.808;11.292;2023-06-01T06:37:41;31.70;68.90
24402;DHT22;12539;48.808;11.292;2023-06-01T06:40:07;32.10;71.80
24402;DHT22;12539;48.808;11.292;2023-06-01T06:42:33;32.40;64.50
24402;DHT22;12539;48.808;11.292;2023-06-01T06:44:58;32.50;71.50
24402;DHT22;12539;48.808;11.292;2023-06-01T06:47:24;32.50;70.30
24402;DHT22;12539;48.808;11.292;2023-06-01T06:49:51;32.50;72.20
24402;DHT22;12539;48.808;11.292;2023-06-01T06:52:17;32.50;67.10
24402;DHT22;12539;48.808;11.292;2023-06-01T06:54:42;32.60;67.20
24402;DHT22;12539;48.808;11.292;2023-06-01T06:57:08;32.80;67.10
24402;DHT22;12539;48.808;11.292;2023-06-01T06:59:34;33.10;67.80
24402;DHT22;12539;48.808;11.292;2023-06-01T07:02:00;33.20;63.70
24402;DHT22;12539;48.808;11.292;2023-06-01T07:04:27;33.30;61.30
24402;DHT22;12539;48.808;11.292;2023-06-01T07:06:52;33.20;59.90
24402;DHT22;12539;48.808;11.292;2023-06-01T07:09:18;32.60;64.60
24402;DHT22;12539;48.808;11.292;2023-06-01T07:11:44;31.60;60.00
24402;DHT22;12539;48.808;11.292;2023-06-01T07:14:10;30.10;63.20
24402;DHT22;12539;48.808;11.292;2023-06-01T07:16:36;28.70;63.60
24402;DHT22;12539;48.808;11.292;2023-06-01T07:19:02;27.50;67.20
24402;DHT22;12539;48.808;11.292;2023-06-01T07:21:28;26.80;72.90
24402;DHT22;12539;48.808;11.292;2023-06-01T07:23:56;26.90;73.50
24402;DHT22;12539;48.808;11.292;2023-06-01T07:26:26;27.30;72.90
24402;DHT22;12539;48.808;11.292;2023-06-01T07:28:54;27.00;74.70
24402;DHT22;12539;48.808;11.292;2023-06-01T07:31:20;26.40;76.20
24402;DHT22;12539;48.808;11.292;2023-06-01T07:33:45;25.80;78.90
24402;DHT22;12539;48.808;11.292;2023-06-01T07:36:11;25.30;82.70
24402;DHT22;12539;48.808;11.292;2023-06-01T07:38:37;24.80;83.60
24402;DHT22;12539;48.808;11.292;2023-06-01T07:41:02;24.50;82.10
24402;DHT22;12539;48.808;11.292;2023-06-01T07:46:31;23.90;81.80
24402;DHT22;12539;48.808;11.292;2023-06-01T07:48:57;23.60;85.60
24402;DHT22;12539;48.808;11.292;2023-06-01T07:51:24;23.50;86.10
24402;DHT22;12539;48.808;11.292;2023-06-01T07:53:50;23.40;88.30
24402;DHT22;12539;48.808;11.292;2023-06-01T07:56:15;23.30;88.50
24402;DHT22;12539;48.808;11.292;2023-06-01T07:58:41;23.30;86.90
24402;DHT22;12539;48.808;11.292;2023-06-01T08:01:12;23.20;90.60
24402;DHT22;12539;48.808;11.292;2023-06-01T08:06:41;23.10;90.00
24402;DHT22;12539;48.808;11.292;2023-06-01T08:09:06;23.10;91.00
24402;DHT22;12539;48.808;11.292;2023-06-01T08:11:32;23.10;89.60
24402;DHT22;12539;48.808;11.292;2023-06-01T08:13:58;23.00;89.20
24402;DHT22;12539;48.808;11.292;2023-06-01T08:16:25;22.90;88.50
24402;DHT22;12539;48.808;11.292;2023-06-01T08:18:52;22.90;85.80
24402;DHT22;12539;48.808;11.292;2023-06-01T08:21:17;22.90;87.10
24402;DHT22;12539;48.808;11.292;2023-06-01T08:23:43;23.00;88.30
24402;DHT22;12539;48.808;11.292;2023-06-01T08:26:08;23.00;90.50
24402;DHT22;12539;48.808;11.292;2023-06-01T08:28:34;23.00;90.00
24402;DHT22;12539;48.808;11.292;2023-06-01T08:31:00;23.00;91.00
24402;DHT22;12539;48.808;11.292;2023-06-01T08:33:28;23.00;91.70
24402;DHT22;12539;48.808;11.292;2023-06-01T08:35:53;23.00;89.30
24402;DHT22;12539;48.808;11.292;2023-06-01T08:38:19;23.00;87.50
24402;DHT22;12539;48.808;11.292;2023-06-01T08:40:44;23.10;86.70
24402;DHT22;12539;48.808;11.292;2023-06-01T08:43:17;23.10;90.60
24402;DHT22;12539;48.808;11.292;2023-06-01T08:45:44;23.10;91.60
24402;DHT22;12539;48.808;11.292;2023-06-01T08:48:10;23.10;91.40
24402;DHT22;12539;48.808;11.292;2023-06-01T08:50:37;23.10;87.70
24402;DHT22;12539;48.808;11.292;2023-06-01T08:53:03;23.10;89.00
24402;DHT22;12539;48.808;11.292;2023-06-01T08:55:29;23.10;89.10
24402;DHT22;12539;48.808;11.292;2023-06-01T08:57:55;23.10;90.40
24402;DHT22;12539;48.808;11.292;2023-06-01T09:00:21;23.10;91.10
24402;DHT22;12539;48.808;11.292;2023-06-01T09:02:47;23.10;91.80
24402;DHT22;12539;48.808;11.292;2023-06-01T09:05:13;23.10;90.70
24402;DHT22;12539;48.808;11.292;2023-06-01T09:07:39;23.10;92.10
24402;DHT22;12539;48.808;11.292;2023-06-01T09:10:05;23.10;91.90
24402;DHT22;12539;48.808;11.292;2023-06-01T09:12:31;23.00;92.60
24402;DHT22;12539;48.808;11.292;2023-06-01T09:15:08;23.00;90.00
24402;DHT22;12539;48.808;11.292;2023-06-01T09:17:35;23.00;92.00
24402;DHT22;12539;48.808;11.292;2023-06-01T09:20:00;23.00;91.00
24402;DHT22;12539;48.808;11.292;2023-06-01T09:22:37;23.10;90.30
24402;DHT22;12539;48.808;11.292;2023-06-01T09:25:03;23.10;89.80
24402;DHT22;12539;48.808;11.292;2023-06-01T09:27:28;23.10;89.50
24402;DHT22;12539;48.808;11.292;2023-06-01T09:29:55;23.10;90.00
24402;DHT22;12539;48.808;11.292;2023-06-01T09:32:21;23.20;88.10
24402;DHT22;12539;48.808;11.292;2023-06-01T09:34:46;23.20;89.30
24402;DHT22;12539;48.808;11.292;2023-06-01T09:37:12;23.20;86.20
24402;DHT22;12539;48.808;11.292;2023-06-01T09:39:39;23.20;89.50
24402;DHT22;12539;48.808;11.292;2023-06-01T09:42:04;23.20;89.20
24402;DHT22;12539;48.808;11.292;2023-06-01T09:44:35;23.30;90.50
24402;DHT22;12539;48.808;11.292;2023-06-01T09:47:02;23.30;89.20
24402;DHT22;12539;48.808;11.292;2023-06-01T09:49:29;23.30;90.20
24402;DHT22;12539;48.808;11.292;2023-06-01T09:54:30;23.30;90.00
24402;DHT22;12539;48.808;11.292;2023-06-01T09:56:59;23.40;88.90
24402;DHT22;12539;48.808;11.292;2023-06-01T09:59:25;23.40;89.20
24402;DHT22;12539;48.808;11.292;2023-06-01T10:01:52;23.30;87.80
24402;DHT22;12539;48.808;11.292;2023-06-01T10:04:22;23.30;77.40
24402;DHT22;12539;48.808;11.292;2023-06-01T10:06:52;23.30;84.00
24402;DHT22;12539;48.808;11.292;2023-06-01T10:09:19;23.30;88.30
24402;DHT22;12539;48.808;11.292;2023-06-01T10:11:46;23.30;90.00
24402;DHT22;12539;48.808;11.292;2023-06-01T10:14:13;23.40;92.10
24402;DHT22;12539;48.808;11.292;2023-06-01T10:16:39;23.40;92.50
24402;DHT22;12539;48.808;11.292;2023-06-01T10:19:06;23.40;91.90
24402;DHT22;12539;48.808;11.292;2023-06-01T10:21:32;23.50;90.70
24402;DHT22;12539;48.808;11.292;2023-06-01T10:23:58;23.50;90.00
24402;DHT22;12539;48.808;11.292;2023-06-01T10:26:24;23.60;89.50
24402;DHT22;12539;48.808;11.292;2023-06-01T10:28:51;23.60;89.60
24402;DHT22;12539;48.808;11.292;2023-06-01T10:33:59;23.60;91.20
24402;DHT22;12539;48.808;11.292;2023-06-01T10:36:24;23.60;84.80
24402;DHT22;12539;48.808;11.292;2023-06-01T10:41:51;23.60;86.00
24402;DHT22;12539;48.808;11.292;2023-06-01T10:47:01;23.60;90.00
24402;DHT22;12539;48.808;11.292;2023-06-01T10:49:57;23.60;91.60
24402;DHT22;12539;48.808;11.292;2023-06-01T10:52:28;23.70;83.80
24402;DHT22;12539;48.808;11.292;2023-06-01T10:55:39;23.70;83.50
24402;DHT22;12539;48.808;11.292;2023-06-01T10:57:40;23.70;85.60
24402;DHT22;12539;48.808;11.292;2023-06-01T11:02:44;23.90;85.00
24402;DHT22;12539;48.808;11.292;2023-06-01T11:07:55;24.00;86.50
24402;DHT22;12539;48.808;11.292;2023-06-01T11:15:37;24.10;80.90
24402;DHT22;12539;48.808;11.292;2023-06-01T11:20:48;24.20;81.40
24402;DHT22;12539;48.808;11.292;2023-06-01T11:23:14;24.20;78.70
24402;DHT22;12539;48.808;11.292;2023-06-01T11:25:41;24.30;77.30
24402;DHT22;12539;48.808;11.292;2023-06-01T11:28:07;24.30;78.50
24402;DHT22;12539;48.808;11.292;2023-06-01T11:30:34;24.40;80.80
24402;DHT22;12539;48.808;11.292;2023-06-01T11:33:00;24.40;81.20
24402;DHT22;12539;48.808;11.292;2023-06-01T11:35:27;24.50;85.90
24402;DHT22;12539;48.808;11.292;2023-06-01T11:37:54;24.50;84.00
24402;DHT22;12539;48.808;11.292;2023-06-01T11:40:19;24.50;84.30
24402;DHT22;12539;48.808;11.292;2023-06-01T11:42:46;24.50;85.40
24402;DHT22;12539;48.808;11.292;2023-06-01T11:45:14;24.50;80.00
24402;DHT22;12539;48.808;11.292;2023-06-01T11:47:41;24.50;82.40
24402;DHT22;12539;48.808;11.292;2023-06-01T11:50:19;24.50;83.60
24402;DHT22;12539;48.808;11.292;2023-06-01T11:52:45;24.50;81.90
24402;DHT22;12539;48.808;11.292;2023-06-01T11:55:11;24.50;77.70
24402;DHT22;12539;48.808;11.292;2023-06-01T11:57:39;24.50;81.80
24402;DHT22;12539;48.808;11.292;2023-06-01T12:00:05;24.60;82.10
24402;DHT22;12539;48.808;11.292;2023-06-01T12:02:37;24.60;82.70
24402;DHT22;12539;48.808;11.292;2023-06-01T12:05:04;24.60;82.60
24402;DHT22;12539;48.808;11.292;2023-06-01T12:07:51;24.70;85.10
24402;DHT22;12539;48.808;11.292;2023-06-01T12:10:17;24.70;83.50
24402;DHT22;12539;48.808;11.292;2023-06-01T12:12:44;24.70;84.40
24402;DHT22;12539;48.808;11.292;2023-06-01T12:15:10;24.80;85.60
24402;DHT22;12539;48.808;11.292;2023-06-01T12:20:11;24.90;81.70
24402;DHT22;12539;48.808;11.292;2023-06-01T12:22:36;25.00;85.80
24402;DHT22;12539;48.808;11.292;2023-06-01T12:25:06;25.00;87.50
24402;DHT22;12539;48.808;11.292;2023-06-01T12:27:33;25.10;86.40
24402;DHT22;12539;48.808;11.292;2023-06-01T12:30:01;25.20;84.00
24402;DHT22;12539;48.808;11.292;2023-06-01T12:32:37;25.20;78.20
24402;DHT22;12539;48.808;11.292;2023-06-01T12:35:03;25.30;83.50
24402;DHT22;12539;48.808;11.292;2023-06-01T12:37:34;25.30;87.70
24402;DHT22;12539;48.808;11.292;2023-06-01T12:42:52;25.60;85.40
24402;DHT22;12539;48.808;11.292;2023-06-01T12:45:17;25.80;88.20
24402;DHT22;12539;48.808;11.292;2023-06-01T12:47:44;25.90;84.10
24402;DHT22;12539;48.808;11.292;2023-06-01T12:50:10;26.10;86.10
24402;DHT22;12539;48.808;11.292;2023-06-01T12:52:37;26.20;85.30
24402;DHT22;12539;48.808;11.292;2023-06-01T12:55:03;26.30;88.50
24402;DHT22;12539;48.808;11.292;2023-06-01T12:57:30;26.40;88.90
24402;DHT22;12539;48.808;11.292;2023-06-01T12:59:56;26.50;83.30
24402;DHT22;12539;48.808;11.292;2023-06-01T13:02:21;26.40;73.40
24402;DHT22;12539;48.808;11.292;2023-06-01T13:04:48;26.40;77.00
24402;DHT22;12539;48.808;11.292;2023-06-01T13:07:14;26.40;77.40
24402;DHT22;12539;48.808;11.292;2023-06-01T13:09:40;26.40;81.80
24402;DHT22;12539;48.808;11.292;2023-06-01T13:12:06;26.40;79.00
24402;DHT22;12539;48.808;11.292;2023-06-01T13:14:31;26.30;79.20
24402;DHT22;12539;48.808;11.292;2023-06-01T13:16:57;26.30;82.80
24402;DHT22;12539;48.808;11.292;2023-06-01T13:19:22;26.30;82.50
24402;DHT22;12539;48.808;11.292;2023-06-01T13:21:50;26.30;82.40
24402;DHT22;12539;48.808;11.292;2023-06-01T13:24:16;26.30;84.90
24402;DHT22;12539;48.808;11.292;2023-06-01T13:26:41;26.20;81.30
24402;DHT22;12539;48.808;11.292;2023-06-01T13:29:07;26.10;83.00
24402;DHT22;12539;48.808;11.292;2023-06-01T13:31:34;26.10;81.10
24402;DHT22;12539;48.808;11.292;2023-06-01T13:34:01;26.00;79.50
24402;DHT22;12539;48.808;11.292;2023-06-01T13:36:26;25.90;72.50
24402;DHT22;12539;48.808;11.292;2023-06-01T13:38:52;25.80;74.80
24402;DHT22;12539;48.808;11.292;2023-06-01T13:41:17;25.70;78.70
24402;DHT22;12539;48.808;11.292;2023-06-01T13:43:43;25.60;76.30
24402;DHT22;12539;48.808;11.292;2023-06-01T13:46:09;25.60;79.00
24402;DHT22;12539;48.808;11.292;2023-06-01T13:48:35;25.50;82.50
24402;DHT22;12539;48.808;11.292;2023-06-01T13:51:01;25.50;78.70
24402;DHT22;12539;48.808;11.292;2023-06-01T13:53:26;25.50;79.40
24402;DHT22;12539;48.808;11.292;2023-06-01T13:55:52;25.50;76.50
24402;DHT22;12539;48.808;11.292;2023-06-01T13:58:18;25.40;78.40
24402;DHT22;12539;48.808;11.292;2023-06-01T14:00:43;25.40;78.30
24402;DHT22;12539;48.808;11.292;2023-06-01T14:03:09;25.30;75.50
24402;DHT22;12539;48.808;11.292;2023-06-01T14:05:35;25.30;72.40
24402;DHT22;12539;48.808;11.292;2023-06-01T14:08:00;25.30;69.70
24402;DHT22;12539;48.808;11.292;2023-06-01T14:10:27;25.30;71.20
24402;DHT22;12539;48.808;11.292;2023-06-01T14:12:53;25.30;75.10
24402;DHT22;12539;48.808;11.292;2023-06-01T14:15:18;25.30;71.40
24402;DHT22;12539;48.808;11.292;2023-06-01T14:17:44;25.30;69.00
24402;DHT22;12539;48.808;11.292;2023-06-01T14:20:10;25.40;70.50
24402;DHT22;12539;48.808;11.292;2023-06-01T14:22:36;25.40;68.60
24402;DHT22;12539;48.808;11.292;2023-06-01T14:25:01;25.30;64.10
24402;DHT22;12539;48.808;11.292;2023-06-01T14:27:27;25.30;68.20
24402;DHT22;12539;48.808;11.292;2023-06-01T14:29:52;25.30;69.10
24402;DHT22;12539;48.808;11.292;2023-06-01T14:32:18;25.30;70.40
24402;DHT22;12539;48.808;11.292;2023-06-01T14:34:43;25.40;72.40
24402;DHT22;12539;48.808;11.292;2023-06-01T14:37:09;25.40;67.50
24402;DHT22;12539;48.808;11.292;2023-06-01T14:39:36;25.40;72.60
24402;DHT22;12539;48.808;11.292;2023-06-01T14:42:03;25.40;69.00
24402;DHT22;12539;48.808;11.292;2023-06-01T14:44:29;25.40;68.60
24402;DHT22;12539;48.808;11.292;2023-06-01T14:46:54;25.40;71.80
24402;DHT22;12539;48.808;11.292;2023-06-01T14:49:20;25.30;71.20
24402;DHT22;12539;48.808;11.292;2023-06-01T14:51:45;25.30;75.10
24402;DHT22;12539;48.808;11.292;2023-06-01T14:54:11;25.30;69.20
24402;DHT22;12539;48.808;11.292;2023-06-01T14:56:37;25.20;68.60
24402;DHT22;12539;48.808;11.292;2023-06-01T14:59:02;25.20;73.60
24402;DHT22;12539;48.808;11.292;2023-06-01T15:01:28;25.20;77.00
24402;DHT22;12539;48.808;11.292;2023-06-01T15:03:53;25.20;68.00
24402;DHT22;12539;48.808;11.292;2023-06-01T15:06:19;25.20;70.30
24402;DHT22;12539;48.808;11.292;2023-06-01T15:08:44;25.10;66.10
24402;DHT22;12539;48.808;11.292;2023-06-01T15:11:10;25.10;67.60
24402;DHT22;12539;48.808;11.292;2023-06-01T15:13:35;25.10;62.30
24402;DHT22;12539;48.808;11.292;2023-06-01T15:16:02;25.00;64.50
24402;DHT22;12539;48.808;11.292;2023-06-01T15:18:28;25.00;61.40
24402;DHT22;12539;48.808;11.292;2023-06-01T15:20:53;25.00;63.80
24402;DHT22;12539;48.808;11.292;2023-06-01T15:23:19;25.00;65.30
24402;DHT22;12539;48.808;11.292;2023-06-01T15:25:45;25.00;62.60
24402;DHT22;12539;48.808;11.292;2023-06-01T15:28:10;25.00;67.10
24402;DHT22;12539;48.808;11.292;2023-06-01T15:30:36;25.10;71.10
24402;DHT22;12539;48.808;11.292;2023-06-01T15:33:03;25.10;73.40
24402;DHT22;12539;48.808;11.292;2023-06-01T15:35:28;25.10;74.20
24402;DHT22;12539;48.808;11.292;2023-06-01T15:37:54;25.10;74.00
24402;DHT22;12539;48.808;11.292;2023-06-01T15:40:20;25.10;72.70
24402;DHT22;12539;48.808;11.292;2023-06-01T15:42:45;25.10;68.40
24402;DHT22;12539;48.808;11.292;2023-06-01T15:45:12;25.10;63.60
24402;DHT22;12539;48.808;11.292;2023-06-01T15:47:38;25.00;61.10
24402;DHT22;12539;48.808;11.292;2023-06-01T15:50:03;25.00;66.20
24402;DHT22;12539;48.808;11.292;2023-06-01T15:52:29;25.00;62.00
24402;DHT22;12539;48.808;11.292;2023-06-01T15:57:40;25.00;65.90
24402;DHT22;12539;48.808;11.292;2023-06-01T16:02:50;25.10;70.90
24402;DHT22;12539;48.808;11.292;2023-06-01T16:05:15;25.10;68.50
24402;DHT22;12539;48.808;11.292;2023-06-01T16:07:41;25.00;67.20